Wetterdaten: Woche 20.06.16 - 26.06.16 (KW25)
Datum Zeit Temp. A. Feuchte A. Luftdruck Regen Wind Richtung Taupunkt Windchill Windben
20.06.2016 00:00 15,7 C 82 % 1016,9 hPa 0,3 l/m 8,2 km/h N 12,6 C 14,8 C 20,5 km/h
20.06.2016 01:00 15,7 C 82 % 1016,8 hPa 0,0 l/m 8,1 km/h N 12,6 C 14,8 C 20,5 km/h
20.06.2016 02:00 15,9 C 82 % 1016,4 hPa 0,0 l/m 10,4 km/h N 12,9 C 14,0 C 22,1 km/h
20.06.2016 03:00 15,9 C 82 % 1016,7 hPa 0,0 l/m 8,1 km/h N 12,9 C 15,1 C 18,9 km/h
20.06.2016 04:00 16,1 C 82 % 1016,2 hPa 0,3 l/m 7,5 km/h N 13,0 C 15,4 C 20,9 km/h
20.06.2016 05:00 15,9 C 82 % 1015,9 hPa 0,0 l/m 7,1 km/h N 12,8 C 15,5 C 20,5 km/h
20.06.2016 06:00 15,8 C 82 % 1016,3 hPa 0,0 l/m 6,7 km/h N 12,8 C 15,7 C 18,5 km/h
20.06.2016 07:00 15,6 C 82 % 1016,7 hPa 1,8 l/m 3,9 km/h N 12,5 C 15,6 C 13,7 km/h
20.06.2016 08:00 15,5 C 82 % 1017,2 hPa 4,2 l/m 1,5 km/h N 12,4 C 15,5 C 9,3 km/h
20.06.2016 09:00 15,3 C 82 % 1017,5 hPa 8,1 l/m 3,8 km/h N 12,2 C 15,3 C 10,9 km/h
20.06.2016 10:00 15,5 C 81 % 1017,5 hPa 2,6 l/m 5,7 km/h N 12,3 C 15,5 C 13,7 km/h
20.06.2016 11:00 15,9 C 81 % 1018,0 hPa 0,3 l/m 5,4 km/h N 12,6 C 15,9 C 15,3 km/h
20.06.2016 12:00 16,3 C 81 % 1018,5 hPa 0,0 l/m 4,1 km/h N 13,0 C 16,3 C 14,9 km/h
20.06.2016 13:00 16,3 C 81 % 1018,4 hPa 0,0 l/m 3,4 km/h N 13,0 C 16,3 C 10,5 km/h
20.06.2016 14:00 16,5 C 82 % 1018,6 hPa 0,0 l/m 2,2 km/h N 13,3 C 16,5 C 10,1 km/h
20.06.2016 15:00 17,0 C 82 % 1018,6 hPa 0,0 l/m 5,3 km/h N 13,9 C 16,9 C 14,1 km/h
20.06.2016 16:00 16,9 C 82 % 1019,0 hPa 0,0 l/m 2,3 km/h N 13,8 C 16,9 C 9,7 km/h
20.06.2016 17:00 16,6 C 82 % 1019,2 hPa 0,0 l/m 6,1 km/h N 13,5 C 16,6 C 16,5 km/h
20.06.2016 18:00 17,6 C 82 % 1019,2 hPa 0,0 l/m 6,1 km/h N 14,5 C 17,6 C 18,9 km/h
20.06.2016 19:00 17,5 C 82 % 1019,5 hPa 0,0 l/m 4,2 km/h N 14,3 C 17,5 C 13,7 km/h
20.06.2016 20:00 17,2 C 81 % 1019,4 hPa 0,0 l/m 0,3 km/h N 13,9 C 17,2 C 2,8 km/h
20.06.2016 21:00 15,9 C 82 % 1019,7 hPa 0,0 l/m 0,0 km/h N 12,8 C 15,9 C 1,2 km/h
20.06.2016 22:00 15,1 C 82 % 1020,3 hPa 0,0 l/m 0,0 km/h N 12,1 C 15,1 C 0,8 km/h
20.06.2016 23:00 14,6 C 82 % 1020,4 hPa 0,0 l/m 0,0 km/h N 11,6 C 14,6 C 0,0 km/h
21.06.2016 00:00 14,3 C 82 % 1020,6 hPa 0,0 l/m 0,0 km/h N 11,3 C 14,3 C 0,0 km/h
21.06.2016 01:00 14,3 C 82 % 1020,5 hPa 0,0 l/m 0,0 km/h N 11,2 C 14,3 C 0,0 km/h
21.06.2016 02:00 13,7 C 82 % 1020,2 hPa 0,0 l/m 0,6 km/h N 10,7 C 13,7 C 3,6 km/h
21.06.2016 03:00 13,6 C 82 % 1020,0 hPa 0,0 l/m 0,0 km/h N 10,5 C 13,6 C 1,6 km/h
21.06.2016 04:00 12,7 C 82 % 1020,0 hPa 0,0 l/m 0,0 km/h N 9,7 C 12,7 C 0,0 km/h
21.06.2016 05:00 12,1 C 82 % 1020,1 hPa 0,0 l/m 0,0 km/h N 9,1 C 12,1 C 0,0 km/h
21.06.2016 06:00 12,7 C 82 % 1020,3 hPa 0,0 l/m 0,0 km/h N 9,6 C 12,7 C 0,0 km/h
21.06.2016 07:00 14,9 C 81 % 1020,8 hPa 0,0 l/m 0,0 km/h N 11,6 C 14,9 C 0,8 km/h
21.06.2016 08:00 16,5 C 81 % 1021,3 hPa 0,0 l/m 0,0 km/h N 13,3 C 16,5 C 1,2 km/h
21.06.2016 09:00 19,5 C 80 % 1021,4 hPa 0,0 l/m 0,2 km/h N 16,0 C 19,5 C 4,4 km/h
21.06.2016 10:00 22,5 C 69 % 1021,2 hPa 0,0 l/m 0,4 km/h N 16,6 C 22,5 C 4,8 km/h
21.06.2016 11:00 23,4 C 66 % 1021,3 hPa 0,0 l/m 0,4 km/h N 16,6 C 23,4 C 4,4 km/h
21.06.2016 12:00 25,3 C 61 % 1021,2 hPa 0,0 l/m 0,8 km/h N 17,2 C 25,3 C 7,2 km/h
21.06.2016 13:00 26,0 C 58 % 1021,2 hPa 0,0 l/m 0,9 km/h N 16,9 C 26,0 C 6,4 km/h
21.06.2016 14:00 25,6 C 54 % 1021,1 hPa 0,0 l/m 1,0 km/h N 15,6 C 25,6 C 6,8 km/h
21.06.2016 15:00 26,3 C 51 % 1020,9 hPa 0,0 l/m 0,4 km/h N 15,3 C 26,3 C 5,2 km/h
21.06.2016 16:00 25,9 C 54 % 1021,1 hPa 0,0 l/m 0,9 km/h N 15,7 C 25,9 C 6,0 km/h
21.06.2016 17:00 25,8 C 55 % 1021,0 hPa 0,0 l/m 0,2 km/h N 15,9 C 25,8 C 2,4 km/h
21.06.2016 18:00 25,1 C 58 % 1021,1 hPa 0,0 l/m 0,1 km/h N 16,4 C 25,1 C 2,0 km/h
21.06.2016 19:00 24,7 C 61 % 1021,3 hPa 0,0 l/m 0,0 km/h N 16,6 C 24,7 C 0,0 km/h
21.06.2016 20:00 24,1 C 63 % 1021,5 hPa 0,0 l/m 0,1 km/h N 16,6 C 24,1 C 1,6 km/h
21.06.2016 21:00 22,1 C 68 % 1022,2 hPa 0,0 l/m 0,0 km/h N 15,8 C 22,1 C 0,4 km/h
21.06.2016 22:00 19,9 C 74 % 1022,6 hPa 0,0 l/m 0,0 km/h N 15,2 C 19,9 C 0,4 km/h
21.06.2016 23:00 19,0 C 79 % 1022,7 hPa 0,0 l/m 0,0 km/h N 15,3 C 19,0 C 0,0 km/h
22.06.2016 00:00 18,0 C 81 % 1022,9 hPa 0,0 l/m 0,0 km/h N 14,6 C 18,0 C 2,0 km/h
22.06.2016 01:00 17,1 C 82 % 1023,1 hPa 0,0 l/m 0,0 km/h N 13,9 C 17,1 C 0,8 km/h
22.06.2016 02:00 16,4 C 82 % 1023,1 hPa 0,0 l/m 0,0 km/h N 13,3 C 16,4 C 0,4 km/h
22.06.2016 03:00 15,9 C 82 % 1023,2 hPa 0,0 l/m 0,0 km/h N 12,9 C 15,9 C 1,2 km/h
22.06.2016 04:00 15,5 C 82 % 1023,3 hPa 0,0 l/m 0,0 km/h N 12,5 C 15,5 C 0,8 km/h
22.06.2016 05:00 15,4 C 82 % 1023,3 hPa 0,0 l/m 0,2 km/h N 12,3 C 15,4 C 2,4 km/h
22.06.2016 06:00 16,9 C 82 % 1023,6 hPa 0,0 l/m 0,1 km/h N 13,8 C 16,9 C 2,0 km/h
22.06.2016 07:00 19,1 C 82 % 1023,9 hPa 0,0 l/m 0,0 km/h N 15,9 C 19,1 C 0,4 km/h
22.06.2016 08:00 21,4 C 76 % 1024,1 hPa 0,0 l/m 0,0 km/h N 17,0 C 21,4 C 1,2 km/h
22.06.2016 09:00 24,1 C 66 % 1024,2 hPa 0,0 l/m 0,1 km/h N 17,4 C 24,1 C 2,0 km/h
22.06.2016 10:00 25,5 C 62 % 1024,1 hPa 0,0 l/m 0,4 km/h N 17,6 C 25,5 C 3,2 km/h
22.06.2016 11:00 27,0 C 59 % 1024,0 hPa 0,0 l/m 0,6 km/h N 18,1 C 27,0 C 4,8 km/h
22.06.2016 12:00 28,2 C 57 % 1023,5 hPa 0,0 l/m 0,5 km/h N 18,7 C 28,2 C 4,8 km/h
22.06.2016 13:00 28,6 C 53 % 1023,3 hPa 0,0 l/m 1,0 km/h N 18,2 C 28,6 C 8,0 km/h
22.06.2016 14:00 29,3 C 53 % 1022,8 hPa 0,0 l/m 0,6 km/h N 18,6 C 29,3 C 6,0 km/h
22.06.2016 15:00 29,4 C 48 % 1022,5 hPa 0,0 l/m 0,8 km/h N 17,3 C 29,4 C 6,0 km/h
22.06.2016 16:00 28,4 C 50 % 1022,4 hPa 0,0 l/m 0,4 km/h N 16,9 C 28,4 C 4,8 km/h
22.06.2016 17:00 28,3 C 53 % 1022,3 hPa 0,0 l/m 0,3 km/h N 17,8 C 28,3 C 4,8 km/h
22.06.2016 18:00 29,3 C 51 % 1021,8 hPa 0,0 l/m 0,3 km/h N 18,1 C 29,3 C 4,4 km/h
22.06.2016 19:00 28,9 C 53 % 1021,8 hPa 0,0 l/m 0,1 km/h N 18,4 C 28,9 C 2,8 km/h
22.06.2016 20:00 27,4 C 58 % 1021,8 hPa 0,0 l/m 0,0 km/h N 18,3 C 27,4 C 0,4 km/h
22.06.2016 21:00 24,2 C 65 % 1022,3 hPa 0,0 l/m 0,0 km/h N 17,1 C 24,2 C 0,8 km/h
22.06.2016 22:00 22,2 C 71 % 1022,7 hPa 0,0 l/m 0,0 km/h N 16,7 C 22,2 C 1,6 km/h
22.06.2016 23:00 21,0 C 75 % 1022,8 hPa 0,0 l/m 0,1 km/h N 16,4 C 21,0 C 1,6 km/h
23.06.2016 00:00 20,0 C 78 % 1022,8 hPa 0,0 l/m 0,0 km/h N 16,0 C 20,0 C 0,0 km/h
23.06.2016 01:00 19,1 C 80 % 1022,9 hPa 0,0 l/m 0,0 km/h N 15,4 C 19,1 C 0,0 km/h
23.06.2016 02:00 18,5 C 81 % 1022,8 hPa 0,0 l/m 0,1 km/h N 15,2 C 18,5 C 2,0 km/h
23.06.2016 03:00 18,1 C 81 % 1022,8 hPa 0,0 l/m 0,0 km/h N 14,8 C 18,1 C 0,8 km/h
23.06.2016 04:00 17,7 C 82 % 1022,9 hPa 0,0 l/m 0,0 km/h N 14,6 C 17,7 C 0,8 km/h
23.06.2016 05:00 17,3 C 82 % 1023,0 hPa 0,0 l/m 0,0 km/h N 14,2 C 17,3 C 0,8 km/h
23.06.2016 06:00 17,6 C 82 % 1023,1 hPa 0,0 l/m 0,0 km/h N 14,5 C 17,6 C 0,0 km/h
23.06.2016 07:00 19,1 C 82 % 1023,2 hPa 0,0 l/m 0,1 km/h N 15,9 C 19,1 C 1,2 km/h
23.06.2016 08:00 23,0 C 73 % 1023,1 hPa 0,0 l/m 0,3 km/h N 17,9 C 23,0 C 2,0 km/h
23.06.2016 09:00 26,8 C 60 % 1023,0 hPa 0,0 l/m 0,1 km/h N 18,4 C 26,8 C 2,4 km/h
23.06.2016 10:00 29,1 C 55 % 1022,8 hPa 0,0 l/m 0,4 km/h N 19,1 C 29,1 C 4,0 km/h
23.06.2016 11:00 29,4 C 53 % 1022,8 hPa 0,0 l/m 0,7 km/h N 18,9 C 29,4 C 7,2 km/h
23.06.2016 12:00 30,4 C 52 % 1022,5 hPa 0,0 l/m 0,9 km/h N 19,2 C 30,4 C 6,4 km/h
23.06.2016 13:00 30,7 C 51 % 1022,0 hPa 0,0 l/m 1,4 km/h N 19,4 C 30,7 C 9,3 km/h
23.06.2016 14:00 31,7 C 49 % 1021,5 hPa 0,0 l/m 1,3 km/h N 19,5 C 31,7 C 7,6 km/h
23.06.2016 15:00 31,1 C 47 % 1021,1 hPa 0,0 l/m 1,3 km/h N 18,3 C 31,1 C 8,1 km/h
23.06.2016 16:00 30,0 C 50 % 1020,6 hPa 0,0 l/m 0,9 km/h N 18,5 C 30,0 C 8,0 km/h
23.06.2016 17:00 30,5 C 51 % 1020,1 hPa 0,0 l/m 0,8 km/h N 19,2 C 30,5 C 8,1 km/h
23.06.2016 18:00 31,0 C 49 % 1019,7 hPa 0,0 l/m 0,8 km/h N 19,1 C 31,0 C 5,6 km/h
23.06.2016 19:00 30,8 C 46 % 1019,6 hPa 0,0 l/m 0,3 km/h N 17,7 C 30,8 C 6,0 km/h
23.06.2016 20:00 29,5 C 50 % 1019,2 hPa 0,0 l/m 0,0 km/h N 17,9 C 29,5 C 1,6 km/h
23.06.2016 21:00 25,6 C 61 % 1019,5 hPa 0,0 l/m 0,0 km/h N 17,5 C 25,6 C 0,0 km/h
23.06.2016 22:00 22,7 C 71 % 1019,6 hPa 0,0 l/m 0,0 km/h N 17,2 C 22,7 C 0,0 km/h
23.06.2016 23:00 20,9 C 77 % 1019,4 hPa 0,0 l/m 0,0 km/h N 16,7 C 20,9 C 0,0 km/h
24.06.2016 00:00 19,9 C 80 % 1019,1 hPa 0,0 l/m 0,0 km/h N 16,2 C 19,9 C 0,0 km/h
24.06.2016 01:00 19,3 C 81 % 1018,5 hPa 0,0 l/m 0,0 km/h N 15,9 C 19,3 C 0,0 km/h
24.06.2016 02:00 18,7 C 82 % 1018,2 hPa 0,0 l/m 0,0 km/h N 15,5 C 18,7 C 0,0 km/h
24.06.2016 03:00 18,4 C 82 % 1018,0 hPa 0,0 l/m 0,0 km/h N 15,2 C 18,4 C 0,0 km/h
24.06.2016 04:00 18,3 C 82 % 1017,9 hPa 0,0 l/m 0,0 km/h N 15,1 C 18,3 C 0,0 km/h
24.06.2016 05:00 18,1 C 81 % 1017,8 hPa 0,0 l/m 0,0 km/h N 14,8 C 18,1 C 0,0 km/h
24.06.2016 06:00 18,5 C 81 % 1017,6 hPa 0,0 l/m 0,0 km/h N 15,2 C 18,5 C 0,0 km/h
24.06.2016 07:00 20,4 C 80 % 1017,4 hPa 0,0 l/m 0,1 km/h N 16,8 C 20,4 C 4,0 km/h
24.06.2016 08:00 23,7 C 80 % 1017,1 hPa 0,0 l/m 0,5 km/h N 20,1 C 23,7 C 4,4 km/h
24.06.2016 09:00 28,0 C 70 % 1016,8 hPa 0,0 l/m 0,9 km/h N 22,0 C 28,0 C 6,4 km/h
24.06.2016 10:00 30,4 C 60 % 1016,6 hPa 0,0 l/m 2,3 km/h N 21,8 C 30,4 C 8,4 km/h
24.06.2016 11:00 31,3 C 58 % 1016,4 hPa 0,0 l/m 3,3 km/h N 22,1 C 31,3 C 12,5 km/h
24.06.2016 12:00 32,3 C 54 % 1016,0 hPa 0,0 l/m 3,3 km/h N 21,9 C 32,3 C 14,1 km/h
24.06.2016 13:00 33,0 C 51 % 1015,5 hPa 0,0 l/m 4,4 km/h N 21,6 C 33,0 C 15,7 km/h
24.06.2016 14:00 33,5 C 50 % 1015,1 hPa 0,0 l/m 4,8 km/h N 21,6 C 33,5 C 18,5 km/h
24.06.2016 15:00 33,1 C 49 % 1014,7 hPa 0,0 l/m 4,7 km/h N 21,0 C 33,1 C 14,9 km/h
24.06.2016 16:00 32,4 C 50 % 1014,3 hPa 0,0 l/m 4,6 km/h N 20,6 C 32,4 C 13,7 km/h
24.06.2016 17:00 32,3 C 51 % 1013,8 hPa 0,0 l/m 4,6 km/h N 20,7 C 32,3 C 17,7 km/h
24.06.2016 18:00 32,4 C 51 % 1013,3 hPa 0,0 l/m 3,2 km/h N 20,9 C 32,4 C 12,5 km/h
24.06.2016 19:00 31,9 C 53 % 1013,3 hPa 0,0 l/m 1,5 km/h N 21,0 C 31,9 C 8,0 km/h
24.06.2016 20:00 30,6 C 58 % 1013,0 hPa 0,0 l/m 0,3 km/h N 21,4 C 30,6 C 4,4 km/h
24.06.2016 21:00 28,3 C 65 % 1013,4 hPa 0,0 l/m 0,0 km/h N 21,0 C 28,3 C 1,2 km/h
24.06.2016 22:00 25,7 C 73 % 1013,5 hPa 0,0 l/m 0,0 km/h N 20,4 C 25,7 C 0,0 km/h
24.06.2016 23:00 23,9 C 79 % 1013,4 hPa 0,0 l/m 0,0 km/h N 19,9 C 23,9 C 0,0 km/h
25.06.2016 00:00 23,1 C 81 % 1013,1 hPa 0,0 l/m 0,0 km/h N 19,6 C 23,1 C 0,0 km/h
25.06.2016 01:00 22,9 C 81 % 1012,7 hPa 0,0 l/m 0,1 km/h N 19,5 C 22,9 C 2,4 km/h
25.06.2016 02:00 23,0 C 81 % 1012,3 hPa 0,0 l/m 0,0 km/h N 19,4 C 23,0 C 0,4 km/h
25.06.2016 03:00 21,9 C 81 % 1011,9 hPa 0,0 l/m 0,0 km/h N 18,5 C 21,9 C 0,8 km/h
25.06.2016 04:00 20,9 C 81 % 1011,7 hPa 0,0 l/m 0,0 km/h N 17,5 C 20,9 C 0,0 km/h
25.06.2016 05:00 20,2 C 81 % 1011,7 hPa 0,0 l/m 0,0 km/h N 16,8 C 20,2 C 0,8 km/h
25.06.2016 06:00 20,7 C 81 % 1011,5 hPa 0,0 l/m 0,0 km/h N 17,3 C 20,7 C 0,0 km/h
25.06.2016 07:00 22,4 C 80 % 1011,4 hPa 0,0 l/m 0,1 km/h N 18,8 C 22,4 C 2,4 km/h
25.06.2016 08:00 25,5 C 79 % 1011,5 hPa 0,0 l/m 0,6 km/h N 21,5 C 25,5 C 5,6 km/h
25.06.2016 09:00 29,0 C 72 % 1011,3 hPa 0,0 l/m 1,3 km/h N 23,3 C 29,0 C 9,2 km/h
25.06.2016 10:00 30,5 C 65 % 1011,4 hPa 0,0 l/m 2,5 km/h N 23,1 C 30,5 C 9,3 km/h
25.06.2016 11:00 31,3 C 59 % 1011,4 hPa 0,0 l/m 3,4 km/h N 22,4 C 31,3 C 14,9 km/h
25.06.2016 12:00 32,3 C 57 % 1011,1 hPa 0,0 l/m 3,2 km/h N 22,6 C 32,3 C 12,9 km/h
25.06.2016 13:00 32,8 C 54 % 1010,7 hPa 0,0 l/m 4,0 km/h N 22,2 C 32,8 C 15,7 km/h
25.06.2016 14:00 33,5 C 51 % 1009,9 hPa 0,0 l/m 3,9 km/h N 21,9 C 33,5 C 13,3 km/h
25.06.2016 15:00 32,9 C 50 % 1009,3 hPa 0,0 l/m 4,1 km/h N 20,9 C 32,9 C 12,5 km/h
25.06.2016 16:00 32,0 C 48 % 1009,0 hPa 0,0 l/m 5,5 km/h N 19,7 C 32,0 C 16,9 km/h
25.06.2016 17:00 31,9 C 48 % 1008,3 hPa 0,0 l/m 5,6 km/h N 19,5 C 31,9 C 18,5 km/h
25.06.2016 18:00 32,0 C 50 % 1008,0 hPa 0,0 l/m 4,5 km/h N 20,1 C 32,0 C 15,7 km/h
25.06.2016 19:00 31,1 C 53 % 1008,2 hPa 0,0 l/m 3,0 km/h N 20,4 C 31,1 C 10,8 km/h
25.06.2016 20:00 30,0 C 58 % 1007,8 hPa 0,0 l/m 1,4 km/h N 20,6 C 30,0 C 7,6 km/h
25.06.2016 21:00 28,2 C 63 % 1008,3 hPa 0,0 l/m 0,3 km/h N 20,4 C 28,2 C 4,0 km/h
25.06.2016 22:00 26,3 C 66 % 1009,3 hPa 0,0 l/m 3,4 km/h N 19,3 C 26,2 C 15,7 km/h
25.06.2016 23:00 24,4 C 61 % 1010,5 hPa 0,0 l/m 8,9 km/h N 16,2 C 23,6 C 30,2 km/h
26.06.2016 00:00 22,4 C 67 % 1010,5 hPa 0,0 l/m 12,7 km/h N 16,0 C 20,7 C 36,2 km/h
26.06.2016 01:00 20,7 C 76 % 1014,1 hPa 19,0 l/m 5,5 km/h N 16,3 C 20,2 C 22,9 km/h
26.06.2016 02:00 18,5 C 81 % 1012,7 hPa 6,0 l/m 12,2 km/h N 15,2 C 16,3 C 28,1 km/h
26.06.2016 03:00 18,8 C 81 % 1011,5 hPa 0,5 l/m 15,5 km/h N 15,5 C 15,7 C 34,6 km/h
26.06.2016 04:00 19,4 C 81 % 1012,6 hPa 0,0 l/m 3,4 km/h N 16,1 C 19,4 C 15,3 km/h
26.06.2016 05:00 19,4 C 81 % 1013,3 hPa 0,0 l/m 1,5 km/h N 16,1 C 19,4 C 10,1 km/h
26.06.2016 06:00 19,6 C 80 % 1013,7 hPa 0,0 l/m 7,7 km/h N 15,9 C 18,9 C 23,7 km/h
26.06.2016 07:00 19,7 C 77 % 1014,2 hPa 0,0 l/m 9,9 km/h N 15,5 C 18,5 C 25,8 km/h
26.06.2016 08:00 19,8 C 76 % 1014,6 hPa 0,0 l/m 7,3 km/h N 15,5 C 19,4 C 24,5 km/h
26.06.2016 09:00 20,4 C 74 % 1015,1 hPa 0,0 l/m 6,7 km/h N 15,5 C 20,1 C 20,5 km/h
26.06.2016 10:00 21,3 C 70 % 1015,5 hPa 0,0 l/m 9,0 km/h N 15,6 C 20,4 C 25,3 km/h
26.06.2016 11:00 21,3 C 71 % 1016,0 hPa 0,0 l/m 7,9 km/h N 15,7 C 20,8 C 20,1 km/h
26.06.2016 12:00 22,3 C 69 % 1016,0 hPa 0,0 l/m 7,8 km/h N 16,4 C 21,9 C 22,9 km/h
26.06.2016 13:00 23,3 C 68 % 1015,8 hPa 0,0 l/m 7,4 km/h N 16,9 C 22,9 C 22,5 km/h
26.06.2016 14:00 23,1 C 68 % 1015,3 hPa 0,0 l/m 8,0 km/h N 16,7 C 22,6 C 20,5 km/h
26.06.2016 15:00 23,4 C 68 % 1015,0 hPa 0,0 l/m 5,4 km/h N 17,2 C 23,4 C 16,5 km/h
26.06.2016 16:00 23,7 C 67 % 1014,7 hPa 0,0 l/m 5,1 km/h N 17,1 C 23,7 C 17,7 km/h
26.06.2016 17:00 23,5 C 66 % 1014,9 hPa 0,0 l/m 1,8 km/h N 16,7 C 23,5 C 8,9 km/h
26.06.2016 18:00 23,0 C 67 % 1014,3 hPa 0,0 l/m 1,0 km/h N 16,6 C 23,0 C 6,8 km/h
26.06.2016 19:00 22,4 C 70 % 1014,4 hPa 0,0 l/m 1,9 km/h N 16,6 C 22,4 C 9,3 km/h
26.06.2016 20:00 21,8 C 72 % 1014,8 hPa 0,0 l/m 0,6 km/h N 16,4 C 21,8 C 6,4 km/h
26.06.2016 21:00 21,0 C 75 % 1015,2 hPa 0,0 l/m 0,1 km/h N 16,4 C 21,0 C 2,0 km/h
26.06.2016 22:00 19,8 C 78 % 1015,3 hPa 0,0 l/m 0,0 km/h N 15,7 C 19,8 C 1,2 km/h
26.06.2016 23:00 19,3 C 79 % 1015,6 hPa 0,0 l/m 0,8 km/h N 15,5 C 19,3 C 5,6 km/h
Min-Datum _ 21.06.16 23.06.16 25.06.16 - 20.06.16 - 21.06.16 21.06.16 20.06.16
_ Min-Zeit 05:30 19:15 18:15 - 20:15 - 05:30 05:30 21:30
Minimum _ 12,0 C 44 % 1007,7 hPa - 0,0 km/h - 9,0 C 12,0 C 0,0 km/h
Max-Datum _ 24.06.16 20.06.16 22.06.16 26.06.16 26.06.16 - 25.06.16 24.06.16 26.06.16
_ Max-Zeit 14:45 23:30 08:15 01:30 02:45 - 09:15 14:45 00:45
Maximum _ 33,7 C 83 % 1024,2 hPa 19,0 l/m 19,9 km/h
N
- 23,5 C 33,7 C 41,8 km/h
N
Durchschnitt _ 22,8 C 70 % 1017,8 hPa #42,9 l/m 2,2 km/h N 16,6 C 22,7 C 7,9 km/h